sensor_id;sensor_type;location;lat;lon;timestamp;P1;durP1;ratioP1;P2;durP2;ratioP2
75459;SDS011;64039;53.060;9.342;2023-08-31T00:01:11;8.57;;;5.28;;
75459;SDS011;64039;53.060;9.342;2023-08-31T00:03:36;7.82;;;5.53;;
75459;SDS011;64039;53.060;9.342;2023-08-31T00:06:02;10.23;;;5.78;;
75459;SDS011;64039;53.060;9.342;2023-08-31T00:08:29;10.27;;;5.70;;
75459;SDS011;64039;53.060;9.342;2023-08-31T00:10:58;11.15;;;5.50;;
75459;SDS011;64039;53.060;9.342;2023-08-31T00:13:25;6.55;;;5.25;;
75459;SDS011;64039;53.060;9.342;2023-08-31T00:15:55;6.78;;;4.93;;
75459;SDS011;64039;53.060;9.342;2023-08-31T00:18:22;7.10;;;4.93;;
75459;SDS011;64039;53.060;9.342;2023-08-31T00:20:48;8.85;;;5.05;;
75459;SDS011;64039;53.060;9.342;2023-08-31T00:23:13;8.90;;;5.40;;
75459;SDS011;64039;53.060;9.342;2023-08-31T00:25:38;11.27;;;5.30;;
75459;SDS011;64039;53.060;9.342;2023-08-31T00:28:04;7.00;;;4.72;;
75459;SDS011;64039;53.060;9.342;2023-08-31T00:30:32;7.65;;;4.85;;
75459;SDS011;64039;53.060;9.342;2023-08-31T00:32:58;7.15;;;5.00;;
75459;SDS011;64039;53.060;9.342;2023-08-31T00:35:26;11.85;;;4.93;;
75459;SDS011;64039;53.060;9.342;2023-08-31T00:37:52;7.28;;;4.80;;
75459;SDS011;64039;53.060;9.342;2023-08-31T00:40:23;7.75;;;4.40;;
75459;SDS011;64039;53.060;9.342;2023-08-31T00:42:49;8.27;;;4.32;;
75459;SDS011;64039;53.060;9.342;2023-08-31T00:45:14;7.65;;;4.50;;
75459;SDS011;64039;53.060;9.342;2023-08-31T00:47:40;6.35;;;4.35;;
75459;SDS011;64039;53.060;9.342;2023-08-31T00:50:07;7.40;;;4.32;;
75459;SDS011;64039;53.060;9.342;2023-08-31T00:52:33;4.88;;;3.90;;
75459;SDS011;64039;53.060;9.342;2023-08-31T00:54:59;9.10;;;4.10;;
75459;SDS011;64039;53.060;9.342;2023-08-31T00:57:28;6.93;;;3.80;;
75459;SDS011;64039;53.060;9.342;2023-08-31T00:59:53;6.47;;;3.78;;
75459;SDS011;64039;53.060;9.342;2023-08-31T01:02:22;7.47;;;3.60;;
75459;SDS011;64039;53.060;9.342;2023-08-31T01:10:53;6.03;;;3.30;;
75459;SDS011;64039;53.060;9.342;2023-08-31T01:13:28;4.75;;;3.55;;
75459;SDS011;64039;53.060;9.342;2023-08-31T01:15:58;8.60;;;3.53;;
75459;SDS011;64039;53.060;9.342;2023-08-31T01:18:27;5.15;;;3.72;;
75459;SDS011;64039;53.060;9.342;2023-08-31T01:23:54;5.18;;;3.15;;
75459;SDS011;64039;53.060;9.342;2023-08-31T01:26:20;4.75;;;3.22;;
75459;SDS011;64039;53.060;9.342;2023-08-31T01:28:47;8.70;;;3.20;;
75459;SDS011;64039;53.060;9.342;2023-08-31T01:31:13;5.10;;;3.10;;
75459;SDS011;64039;53.060;9.342;2023-08-31T01:33:41;5.53;;;3.17;;
75459;SDS011;64039;53.060;9.342;2023-08-31T01:36:42;7.70;;;2.88;;
75459;SDS011;64039;53.060;9.342;2023-08-31T01:39:06;6.15;;;3.28;;
75459;SDS011;64039;53.060;9.342;2023-08-31T01:41:39;6.13;;;2.70;;
75459;SDS011;64039;53.060;9.342;2023-08-31T01:44:08;5.32;;;3.35;;
75459;SDS011;64039;53.060;9.342;2023-08-31T01:46:39;6.47;;;3.42;;
75459;SDS011;64039;53.060;9.342;2023-08-31T01:49:05;6.38;;;3.45;;
75459;SDS011;64039;53.060;9.342;2023-08-31T01:51:31;7.03;;;3.22;;
75459;SDS011;64039;53.060;9.342;2023-08-31T01:53:56;6.32;;;3.20;;
75459;SDS011;64039;53.060;9.342;2023-08-31T01:56:23;4.50;;;2.63;;
75459;SDS011;64039;53.060;9.342;2023-08-31T01:58:49;5.97;;;3.03;;
75459;SDS011;64039;53.060;9.342;2023-08-31T02:01:14;5.07;;;3.17;;
75459;SDS011;64039;53.060;9.342;2023-08-31T02:03:40;6.78;;;3.03;;
75459;SDS011;64039;53.060;9.342;2023-08-31T02:06:05;5.70;;;3.08;;
75459;SDS011;64039;53.060;9.342;2023-08-31T02:08:31;4.03;;;2.67;;
75459;SDS011;64039;53.060;9.342;2023-08-31T02:10:57;7.20;;;3.08;;
75459;SDS011;64039;53.060;9.342;2023-08-31T02:13:22;5.03;;;2.85;;
75459;SDS011;64039;53.060;9.342;2023-08-31T02:15:51;4.10;;;2.97;;
75459;SDS011;64039;53.060;9.342;2023-08-31T02:18:17;5.65;;;2.80;;
75459;SDS011;64039;53.060;9.342;2023-08-31T02:20:42;3.70;;;2.25;;
75459;SDS011;64039;53.060;9.342;2023-08-31T02:23:08;6.15;;;2.90;;
75459;SDS011;64039;53.060;9.342;2023-08-31T02:25:34;4.10;;;2.95;;
75459;SDS011;64039;53.060;9.342;2023-08-31T02:28:00;5.93;;;2.80;;
75459;SDS011;64039;53.060;9.342;2023-08-31T02:30:25;6.70;;;2.90;;
75459;SDS011;64039;53.060;9.342;2023-08-31T02:32:51;4.75;;;2.70;;
75459;SDS011;64039;53.060;9.342;2023-08-31T02:35:17;8.00;;;2.90;;
75459;SDS011;64039;53.060;9.342;2023-08-31T02:37:42;6.50;;;2.80;;
75459;SDS011;64039;53.060;9.342;2023-08-31T02:40:08;7.18;;;3.15;;
75459;SDS011;64039;53.060;9.342;2023-08-31T02:42:34;7.53;;;2.85;;
75459;SDS011;64039;53.060;9.342;2023-08-31T02:45:00;10.68;;;2.90;;
75459;SDS011;64039;53.060;9.342;2023-08-31T02:47:26;5.43;;;2.90;;
75459;SDS011;64039;53.060;9.342;2023-08-31T02:49:51;8.70;;;2.78;;
75459;SDS011;64039;53.060;9.342;2023-08-31T02:52:17;5.22;;;2.70;;
75459;SDS011;64039;53.060;9.342;2023-08-31T02:54:42;6.47;;;3.10;;
75459;SDS011;64039;53.060;9.342;2023-08-31T02:57:08;5.60;;;2.83;;
75459;SDS011;64039;53.060;9.342;2023-08-31T02:59:34;7.82;;;3.42;;
75459;SDS011;64039;53.060;9.342;2023-08-31T03:02:03;7.50;;;3.10;;
75459;SDS011;64039;53.060;9.342;2023-08-31T03:04:29;5.15;;;2.90;;
75459;SDS011;64039;53.060;9.342;2023-08-31T03:06:54;8.57;;;3.47;;
75459;SDS011;64039;53.060;9.342;2023-08-31T03:09:20;5.63;;;3.13;;
75459;SDS011;64039;53.060;9.342;2023-08-31T03:11:45;6.68;;;2.92;;
75459;SDS011;64039;53.060;9.342;2023-08-31T03:14:11;6.45;;;2.92;;
75459;SDS011;64039;53.060;9.342;2023-08-31T03:16:37;7.93;;;3.53;;
75459;SDS011;64039;53.060;9.342;2023-08-31T03:19:02;7.15;;;3.55;;
75459;SDS011;64039;53.060;9.342;2023-08-31T03:21:28;6.07;;;3.50;;
75459;SDS011;64039;53.060;9.342;2023-08-31T03:23:53;5.68;;;3.47;;
75459;SDS011;64039;53.060;9.342;2023-08-31T03:26:19;8.63;;;3.83;;
75459;SDS011;64039;53.060;9.342;2023-08-31T03:28:44;6.88;;;3.80;;
75459;SDS011;64039;53.060;9.342;2023-08-31T03:31:10;6.50;;;3.67;;
75459;SDS011;64039;53.060;9.342;2023-08-31T03:33:35;8.73;;;3.95;;
75459;SDS011;64039;53.060;9.342;2023-08-31T03:36:01;5.55;;;3.58;;
75459;SDS011;64039;53.060;9.342;2023-08-31T03:38:29;7.82;;;3.40;;
75459;SDS011;64039;53.060;9.342;2023-08-31T03:40:56;5.00;;;3.47;;
75459;SDS011;64039;53.060;9.342;2023-08-31T03:43:22;8.25;;;3.50;;
75459;SDS011;64039;53.060;9.342;2023-08-31T03:45:48;8.73;;;3.30;;
75459;SDS011;64039;53.060;9.342;2023-08-31T03:48:14;7.00;;;3.55;;
75459;SDS011;64039;53.060;9.342;2023-08-31T03:50:39;5.57;;;3.30;;
75459;SDS011;64039;53.060;9.342;2023-08-31T03:53:05;6.32;;;3.60;;
75459;SDS011;64039;53.060;9.342;2023-08-31T03:55:30;6.35;;;3.75;;
75459;SDS011;64039;53.060;9.342;2023-08-31T03:57:56;6.82;;;4.00;;
75459;SDS011;64039;53.060;9.342;2023-08-31T04:00:21;6.75;;;3.65;;
75459;SDS011;64039;53.060;9.342;2023-08-31T04:02:47;5.72;;;3.50;;
75459;SDS011;64039;53.060;9.342;2023-08-31T04:05:12;6.40;;;3.65;;
75459;SDS011;64039;53.060;9.342;2023-08-31T04:07:40;6.40;;;4.00;;
75459;SDS011;64039;53.060;9.342;2023-08-31T04:10:06;10.05;;;3.72;;
75459;SDS011;64039;53.060;9.342;2023-08-31T04:12:32;12.02;;;5.55;;
75459;SDS011;64039;53.060;9.342;2023-08-31T04:14:57;7.93;;;4.22;;
75459;SDS011;64039;53.060;9.342;2023-08-31T04:17:23;10.27;;;4.13;;
75459;SDS011;64039;53.060;9.342;2023-08-31T04:19:49;6.40;;;3.50;;
75459;SDS011;64039;53.060;9.342;2023-08-31T04:22:15;11.48;;;4.60;;
75459;SDS011;64039;53.060;9.342;2023-08-31T04:24:42;6.28;;;4.07;;
75459;SDS011;64039;53.060;9.342;2023-08-31T04:27:07;7.18;;;4.15;;
75459;SDS011;64039;53.060;9.342;2023-08-31T04:29:33;9.75;;;4.25;;
75459;SDS011;64039;53.060;9.342;2023-08-31T04:31:58;10.18;;;4.20;;
75459;SDS011;64039;53.060;9.342;2023-08-31T04:34:24;10.82;;;4.60;;
75459;SDS011;64039;53.060;9.342;2023-08-31T04:36:49;12.13;;;4.43;;
75459;SDS011;64039;53.060;9.342;2023-08-31T04:39:15;13.85;;;5.82;;
75459;SDS011;64039;53.060;9.342;2023-08-31T04:41:40;8.55;;;4.60;;
75459;SDS011;64039;53.060;9.342;2023-08-31T04:44:06;7.28;;;4.40;;
75459;SDS011;64039;53.060;9.342;2023-08-31T04:46:31;12.45;;;6.00;;
75459;SDS011;64039;53.060;9.342;2023-08-31T04:48:59;10.20;;;4.68;;
75459;SDS011;64039;53.060;9.342;2023-08-31T04:51:30;8.77;;;4.32;;
75459;SDS011;64039;53.060;9.342;2023-08-31T04:53:57;13.15;;;4.50;;
75459;SDS011;64039;53.060;9.342;2023-08-31T04:56:23;11.23;;;4.55;;
75459;SDS011;64039;53.060;9.342;2023-08-31T04:58:49;8.98;;;4.78;;
75459;SDS011;64039;53.060;9.342;2023-08-31T05:01:14;8.10;;;4.45;;
75459;SDS011;64039;53.060;9.342;2023-08-31T05:03:41;11.40;;;5.03;;
75459;SDS011;64039;53.060;9.342;2023-08-31T05:06:07;7.07;;;5.05;;
75459;SDS011;64039;53.060;9.342;2023-08-31T05:08:33;9.73;;;4.28;;
75459;SDS011;64039;53.060;9.342;2023-08-31T05:10:59;8.73;;;4.03;;
75459;SDS011;64039;53.060;9.342;2023-08-31T05:13:24;12.30;;;4.68;;
75459;SDS011;64039;53.060;9.342;2023-08-31T05:15:50;8.48;;;4.13;;
75459;SDS011;64039;53.060;9.342;2023-08-31T05:18:15;8.13;;;4.15;;
75459;SDS011;64039;53.060;9.342;2023-08-31T05:20:44;9.77;;;4.55;;
75459;SDS011;64039;53.060;9.342;2023-08-31T05:23:10;8.20;;;4.45;;
75459;SDS011;64039;53.060;9.342;2023-08-31T05:25:36;9.77;;;4.45;;
75459;SDS011;64039;53.060;9.342;2023-08-31T05:28:07;8.35;;;4.80;;
75459;SDS011;64039;53.060;9.342;2023-08-31T05:30:32;7.88;;;4.30;;
75459;SDS011;64039;53.060;9.342;2023-08-31T05:32:59;7.60;;;4.60;;
75459;SDS011;64039;53.060;9.342;2023-08-31T05:35:25;9.32;;;4.10;;
75459;SDS011;64039;53.060;9.342;2023-08-31T05:37:51;8.95;;;4.50;;
75459;SDS011;64039;53.060;9.342;2023-08-31T05:40:16;7.30;;;4.15;;
75459;SDS011;64039;53.060;9.342;2023-08-31T05:42:43;8.30;;;4.53;;
75459;SDS011;64039;53.060;9.342;2023-08-31T05:45:09;7.95;;;4.55;;
75459;SDS011;64039;53.060;9.342;2023-08-31T05:47:34;9.68;;;4.97;;
75459;SDS011;64039;53.060;9.342;2023-08-31T05:50:01;10.60;;;5.32;;
75459;SDS011;64039;53.060;9.342;2023-08-31T05:52:27;8.60;;;4.80;;
75459;SDS011;64039;53.060;9.342;2023-08-31T05:54:52;11.43;;;5.13;;
75459;SDS011;64039;53.060;9.342;2023-08-31T05:57:18;7.60;;;4.25;;
75459;SDS011;64039;53.060;9.342;2023-08-31T05:59:45;7.07;;;3.97;;
75459;SDS011;64039;53.060;9.342;2023-08-31T06:02:11;8.15;;;4.43;;
75459;SDS011;64039;53.060;9.342;2023-08-31T06:04:36;10.93;;;5.13;;
75459;SDS011;64039;53.060;9.342;2023-08-31T06:07:02;9.23;;;4.65;;
75459;SDS011;64039;53.060;9.342;2023-08-31T06:09:28;12.90;;;5.18;;
75459;SDS011;64039;53.060;9.342;2023-08-31T06:11:53;10.35;;;5.28;;
75459;SDS011;64039;53.060;9.342;2023-08-31T06:14:19;6.72;;;4.22;;
75459;SDS011;64039;53.060;9.342;2023-08-31T06:16:45;7.03;;;4.65;;
75459;SDS011;64039;53.060;9.342;2023-08-31T06:19:10;16.00;;;8.20;;
75459;SDS011;64039;53.060;9.342;2023-08-31T06:21:36;8.88;;;4.70;;
75459;SDS011;64039;53.060;9.342;2023-08-31T06:24:01;7.18;;;4.28;;
75459;SDS011;64039;53.060;9.342;2023-08-31T06:26:29;7.82;;;4.68;;
75459;SDS011;64039;53.060;9.342;2023-08-31T06:28:54;8.45;;;4.90;;
75459;SDS011;64039;53.060;9.342;2023-08-31T06:31:19;9.13;;;5.00;;
75459;SDS011;64039;53.060;9.342;2023-08-31T06:33:45;5.65;;;4.05;;
75459;SDS011;64039;53.060;9.342;2023-08-31T06:36:10;7.55;;;4.28;;
75459;SDS011;64039;53.060;9.342;2023-08-31T06:38:36;10.07;;;5.22;;
75459;SDS011;64039;53.060;9.342;2023-08-31T06:41:02;11.02;;;4.93;;
75459;SDS011;64039;53.060;9.342;2023-08-31T06:43:27;6.32;;;4.10;;
75459;SDS011;64039;53.060;9.342;2023-08-31T06:45:53;10.10;;;4.47;;
75459;SDS011;64039;53.060;9.342;2023-08-31T06:48:19;8.35;;;4.53;;
75459;SDS011;64039;53.060;9.342;2023-08-31T06:50:44;8.52;;;4.43;;
75459;SDS011;64039;53.060;9.342;2023-08-31T06:53:10;8.45;;;4.68;;
75459;SDS011;64039;53.060;9.342;2023-08-31T06:55:35;8.13;;;4.47;;
75459;SDS011;64039;53.060;9.342;2023-08-31T06:58:01;14.35;;;4.65;;
75459;SDS011;64039;53.060;9.342;2023-08-31T07:00:29;6.70;;;4.03;;
75459;SDS011;64039;53.060;9.342;2023-08-31T07:02:55;7.47;;;4.25;;
75459;SDS011;64039;53.060;9.342;2023-08-31T07:05:24;10.93;;;5.45;;
75459;SDS011;64039;53.060;9.342;2023-08-31T07:07:54;9.25;;;4.95;;
75459;SDS011;64039;53.060;9.342;2023-08-31T07:10:20;8.60;;;5.32;;
75459;SDS011;64039;53.060;9.342;2023-08-31T07:12:49;13.43;;;7.57;;
75459;SDS011;64039;53.060;9.342;2023-08-31T07:15:14;8.63;;;5.38;;
75459;SDS011;64039;53.060;9.342;2023-08-31T07:17:40;9.68;;;5.50;;
75459;SDS011;64039;53.060;9.342;2023-08-31T07:20:06;9.10;;;5.25;;
75459;SDS011;64039;53.060;9.342;2023-08-31T07:22:33;7.72;;;4.88;;
75459;SDS011;64039;53.060;9.342;2023-08-31T07:24:59;8.13;;;4.78;;
75459;SDS011;64039;53.060;9.342;2023-08-31T07:27:25;11.30;;;6.50;;
75459;SDS011;64039;53.060;9.342;2023-08-31T07:29:50;11.43;;;5.90;;
75459;SDS011;64039;53.060;9.342;2023-08-31T07:32:19;9.75;;;5.43;;
75459;SDS011;64039;53.060;9.342;2023-08-31T07:34:44;8.73;;;5.15;;
75459;SDS011;64039;53.060;9.342;2023-08-31T07:37:10;7.15;;;5.30;;
75459;SDS011;64039;53.060;9.342;2023-08-31T07:39:35;9.30;;;6.03;;
75459;SDS011;64039;53.060;9.342;2023-08-31T07:42:01;8.75;;;5.28;;
75459;SDS011;64039;53.060;9.342;2023-08-31T07:44:27;8.23;;;5.20;;
75459;SDS011;64039;53.060;9.342;2023-08-31T07:46:53;9.77;;;5.97;;
75459;SDS011;64039;53.060;9.342;2023-08-31T07:49:18;10.43;;;5.38;;
75459;SDS011;64039;53.060;9.342;2023-08-31T07:51:44;9.95;;;5.75;;
75459;SDS011;64039;53.060;9.342;2023-08-31T07:54:09;8.00;;;5.40;;
75459;SDS011;64039;53.060;9.342;2023-08-31T07:56:34;8.50;;;4.85;;
75459;SDS011;64039;53.060;9.342;2023-08-31T07:59:00;7.68;;;5.38;;
75459;SDS011;64039;53.060;9.342;2023-08-31T08:01:25;6.93;;;5.68;;
75459;SDS011;64039;53.060;9.342;2023-08-31T08:03:51;8.88;;;5.80;;
75459;SDS011;64039;53.060;9.342;2023-08-31T08:06:16;10.90;;;5.95;;
75459;SDS011;64039;53.060;9.342;2023-08-31T08:08:42;12.02;;;5.68;;
75459;SDS011;64039;53.060;9.342;2023-08-31T08:11:07;8.88;;;5.72;;
75459;SDS011;64039;53.060;9.342;2023-08-31T08:13:33;7.55;;;4.43;;
75459;SDS011;64039;53.060;9.342;2023-08-31T08:15:58;7.72;;;4.05;;
75459;SDS011;64039;53.060;9.342;2023-08-31T08:18:24;6.25;;;4.00;;
75459;SDS011;64039;53.060;9.342;2023-08-31T08:20:52;7.25;;;3.83;;
75459;SDS011;64039;53.060;9.342;2023-08-31T08:23:18;6.78;;;3.30;;
75459;SDS011;64039;53.060;9.342;2023-08-31T08:25:44;2.67;;;2.10;;
75459;SDS011;64039;53.060;9.342;2023-08-31T08:28:10;3.88;;;2.80;;
75459;SDS011;64039;53.060;9.342;2023-08-31T08:30:35;8.65;;;5.00;;
75459;SDS011;64039;53.060;9.342;2023-08-31T08:33:01;6.13;;;3.65;;
75459;SDS011;64039;53.060;9.342;2023-08-31T08:35:26;4.75;;;3.60;;
75459;SDS011;64039;53.060;9.342;2023-08-31T08:37:52;7.25;;;4.22;;
75459;SDS011;64039;53.060;9.342;2023-08-31T08:40:17;6.18;;;4.20;;
75459;SDS011;64039;53.060;9.342;2023-08-31T08:42:43;12.43;;;7.82;;
75459;SDS011;64039;53.060;9.342;2023-08-31T08:45:13;8.68;;;5.50;;
75459;SDS011;64039;53.060;9.342;2023-08-31T08:47:42;52.55;;;29.02;;
75459;SDS011;64039;53.060;9.342;2023-08-31T08:50:10;12.60;;;8.05;;
75459;SDS011;64039;53.060;9.342;2023-08-31T08:52:36;12.75;;;8.15;;
75459;SDS011;64039;53.060;9.342;2023-08-31T08:55:02;11.35;;;6.78;;
75459;SDS011;64039;53.060;9.342;2023-08-31T08:57:30;8.38;;;6.10;;
75459;SDS011;64039;53.060;9.342;2023-08-31T08:59:57;9.38;;;6.82;;
75459;SDS011;64039;53.060;9.342;2023-08-31T09:02:23;18.35;;;10.30;;
75459;SDS011;64039;53.060;9.342;2023-08-31T09:04:49;9.35;;;5.70;;
75459;SDS011;64039;53.060;9.342;2023-08-31T09:07:18;9.13;;;6.63;;
75459;SDS011;64039;53.060;9.342;2023-08-31T09:09:49;21.90;;;12.23;;
75459;SDS011;64039;53.060;9.342;2023-08-31T09:12:20;19.10;;;13.07;;
75459;SDS011;64039;53.060;9.342;2023-08-31T09:15:00;8.18;;;5.80;;
75459;SDS011;64039;53.060;9.342;2023-08-31T09:17:37;14.80;;;9.32;;
75459;SDS011;64039;53.060;9.342;2023-08-31T09:20:03;9.55;;;6.20;;
75459;SDS011;64039;53.060;9.342;2023-08-31T09:22:29;7.80;;;5.80;;
75459;SDS011;64039;53.060;9.342;2023-08-31T09:24:55;8.00;;;5.18;;
75459;SDS011;64039;53.060;9.342;2023-08-31T09:27:20;9.13;;;6.50;;
75459;SDS011;64039;53.060;9.342;2023-08-31T09:29:48;8.55;;;5.93;;
75459;SDS011;64039;53.060;9.342;2023-08-31T09:32:17;7.70;;;5.30;;
75459;SDS011;64039;53.060;9.342;2023-08-31T09:34:43;8.63;;;5.70;;
75459;SDS011;64039;53.060;9.342;2023-08-31T09:37:08;7.97;;;5.50;;
75459;SDS011;64039;53.060;9.342;2023-08-31T09:39:38;9.07;;;5.57;;
75459;SDS011;64039;53.060;9.342;2023-08-31T09:42:04;9.90;;;5.60;;
75459;SDS011;64039;53.060;9.342;2023-08-31T09:44:30;10.65;;;6.75;;
75459;SDS011;64039;53.060;9.342;2023-08-31T09:46:56;8.38;;;5.88;;
75459;SDS011;64039;53.060;9.342;2023-08-31T09:49:23;9.90;;;5.90;;
75459;SDS011;64039;53.060;9.342;2023-08-31T09:51:50;12.82;;;5.95;;
75459;SDS011;64039;53.060;9.342;2023-08-31T09:54:18;9.27;;;7.05;;
75459;SDS011;64039;53.060;9.342;2023-08-31T09:56:46;10.45;;;6.32;;
75459;SDS011;64039;53.060;9.342;2023-08-31T09:59:13;6.63;;;5.63;;
75459;SDS011;64039;53.060;9.342;2023-08-31T10:01:40;9.55;;;5.85;;
75459;SDS011;64039;53.060;9.342;2023-08-31T10:04:06;8.55;;;5.32;;
75459;SDS011;64039;53.060;9.342;2023-08-31T10:06:36;6.78;;;5.00;;
75459;SDS011;64039;53.060;9.342;2023-08-31T10:09:04;10.13;;;5.63;;
75459;SDS011;64039;53.060;9.342;2023-08-31T10:11:30;6.95;;;5.32;;
75459;SDS011;64039;53.060;9.342;2023-08-31T10:13:57;7.82;;;4.65;;
75459;SDS011;64039;53.060;9.342;2023-08-31T10:16:25;8.82;;;5.25;;
75459;SDS011;64039;53.060;9.342;2023-08-31T10:18:51;7.32;;;4.88;;
75459;SDS011;64039;53.060;9.342;2023-08-31T10:21:17;7.82;;;4.43;;
75459;SDS011;64039;53.060;9.342;2023-08-31T10:23:46;9.07;;;4.90;;
75459;SDS011;64039;53.060;9.342;2023-08-31T10:26:31;7.57;;;4.63;;
75459;SDS011;64039;53.060;9.342;2023-08-31T10:28:57;7.38;;;4.38;;
75459;SDS011;64039;53.060;9.342;2023-08-31T10:31:27;6.18;;;3.55;;
75459;SDS011;64039;53.060;9.342;2023-08-31T10:33:54;6.22;;;3.47;;
75459;SDS011;64039;53.060;9.342;2023-08-31T10:36:20;5.00;;;3.10;;
75459;SDS011;64039;53.060;9.342;2023-08-31T10:41:21;6.57;;;2.78;;
75459;SDS011;64039;53.060;9.342;2023-08-31T10:43:48;6.93;;;4.80;;
75459;SDS011;64039;53.060;9.342;2023-08-31T10:51:35;4.82;;;3.65;;
75459;SDS011;64039;53.060;9.342;2023-08-31T10:54:21;6.13;;;3.53;;
75459;SDS011;64039;53.060;9.342;2023-08-31T11:02:26;3.50;;;2.13;;
75459;SDS011;64039;53.060;9.342;2023-08-31T11:05:15;7.78;;;2.00;;
75459;SDS011;64039;53.060;9.342;2023-08-31T11:10:12;3.60;;;2.00;;
75459;SDS011;64039;53.060;9.342;2023-08-31T11:12:42;3.85;;;1.80;;
75459;SDS011;64039;53.060;9.342;2023-08-31T11:15:11;3.80;;;1.67;;
75459;SDS011;64039;53.060;9.342;2023-08-31T11:17:39;5.18;;;1.80;;
75459;SDS011;64039;53.060;9.342;2023-08-31T11:20:05;2.60;;;1.58;;
75459;SDS011;64039;53.060;9.342;2023-08-31T11:22:34;3.95;;;1.55;;
75459;SDS011;64039;53.060;9.342;2023-08-31T11:25:03;4.80;;;1.67;;
75459;SDS011;64039;53.060;9.342;2023-08-31T11:27:28;3.47;;;1.60;;
75459;SDS011;64039;53.060;9.342;2023-08-31T11:29:54;3.40;;;1.33;;
75459;SDS011;64039;53.060;9.342;2023-08-31T11:32:22;5.15;;;1.30;;
75459;SDS011;64039;53.060;9.342;2023-08-31T11:34:49;2.95;;;1.10;;
75459;SDS011;64039;53.060;9.342;2023-08-31T11:37:15;6.03;;;1.15;;
75459;SDS011;64039;53.060;9.342;2023-08-31T11:39:41;2.30;;;0.73;;
75459;SDS011;64039;53.060;9.342;2023-08-31T11:42:08;3.05;;;0.98;;
75459;SDS011;64039;53.060;9.342;2023-08-31T11:44:33;3.83;;;0.90;;
75459;SDS011;64039;53.060;9.342;2023-08-31T11:46:59;2.90;;;0.90;;
75459;SDS011;64039;53.060;9.342;2023-08-31T11:49:26;1.80;;;0.95;;
75459;SDS011;64039;53.060;9.342;2023-08-31T11:51:53;2.40;;;0.88;;
75459;SDS011;64039;53.060;9.342;2023-08-31T11:54:18;3.25;;;0.82;;
75459;SDS011;64039;53.060;9.342;2023-08-31T11:56:44;2.60;;;0.60;;
75459;SDS011;64039;53.060;9.342;2023-08-31T11:59:18;1.98;;;0.75;;
75459;SDS011;64039;53.060;9.342;2023-08-31T12:01:47;2.50;;;0.70;;
75459;SDS011;64039;53.060;9.342;2023-08-31T12:04:14;2.70;;;0.52;;
75459;SDS011;64039;53.060;9.342;2023-08-31T12:06:41;1.60;;;0.70;;
75459;SDS011;64039;53.060;9.342;2023-08-31T12:09:08;2.85;;;0.77;;
75459;SDS011;64039;53.060;9.342;2023-08-31T12:11:34;1.40;;;0.60;;
75459;SDS011;64039;53.060;9.342;2023-08-31T12:14:00;3.58;;;0.70;;
75459;SDS011;64039;53.060;9.342;2023-08-31T12:16:33;1.20;;;0.50;;
75459;SDS011;64039;53.060;9.342;2023-08-31T12:19:01;3.47;;;0.50;;
75459;SDS011;64039;53.060;9.342;2023-08-31T12:21:28;2.13;;;0.45;;
75459;SDS011;64039;53.060;9.342;2023-08-31T12:23:53;2.50;;;0.50;;
75459;SDS011;64039;53.060;9.342;2023-08-31T12:26:19;0.70;;;0.30;;
75459;SDS011;64039;53.060;9.342;2023-08-31T12:28:44;3.55;;;0.60;;
75459;SDS011;64039;53.060;9.342;2023-08-31T12:31:10;2.20;;;0.50;;
75459;SDS011;64039;53.060;9.342;2023-08-31T12:33:35;2.20;;;0.30;;
75459;SDS011;64039;53.060;9.342;2023-08-31T12:36:01;1.95;;;0.57;;
75459;SDS011;64039;53.060;9.342;2023-08-31T12:38:27;1.60;;;0.38;;
75459;SDS011;64039;53.060;9.342;2023-08-31T12:40:52;1.90;;;0.52;;
75459;SDS011;64039;53.060;9.342;2023-08-31T12:43:18;2.15;;;0.52;;
75459;SDS011;64039;53.060;9.342;2023-08-31T12:45:43;2.55;;;0.60;;
75459;SDS011;64039;53.060;9.342;2023-08-31T12:48:09;1.92;;;0.63;;
75459;SDS011;64039;53.060;9.342;2023-08-31T12:50:35;1.58;;;0.60;;
75459;SDS011;64039;53.060;9.342;2023-08-31T12:53:00;1.88;;;0.80;;
75459;SDS011;64039;53.060;9.342;2023-08-31T12:55:26;2.80;;;0.70;;
75459;SDS011;64039;53.060;9.342;2023-08-31T12:57:51;2.13;;;0.82;;
75459;SDS011;64039;53.060;9.342;2023-08-31T13:00:17;3.10;;;0.88;;
75459;SDS011;64039;53.060;9.342;2023-08-31T13:02:43;4.03;;;0.80;;
75459;SDS011;64039;53.060;9.342;2023-08-31T13:05:10;2.50;;;1.05;;
75459;SDS011;64039;53.060;9.342;2023-08-31T13:07:36;2.00;;;0.90;;
75459;SDS011;64039;53.060;9.342;2023-08-31T13:10:02;4.28;;;1.33;;
75459;SDS011;64039;53.060;9.342;2023-08-31T13:12:29;2.60;;;1.38;;
75459;SDS011;64039;53.060;9.342;2023-08-31T13:14:56;2.95;;;1.30;;
75459;SDS011;64039;53.060;9.342;2023-08-31T13:17:22;2.78;;;1.10;;
75459;SDS011;64039;53.060;9.342;2023-08-31T13:19:51;2.00;;;0.98;;
75459;SDS011;64039;53.060;9.342;2023-08-31T13:22:21;2.03;;;1.00;;
75459;SDS011;64039;53.060;9.342;2023-08-31T13:24:47;2.70;;;1.02;;
75459;SDS011;64039;53.060;9.342;2023-08-31T13:27:12;2.85;;;0.95;;
75459;SDS011;64039;53.060;9.342;2023-08-31T13:29:41;4.40;;;1.23;;
75459;SDS011;64039;53.060;9.342;2023-08-31T13:32:06;5.00;;;1.23;;
75459;SDS011;64039;53.060;9.342;2023-08-31T13:34:32;3.35;;;0.90;;
75459;SDS011;64039;53.060;9.342;2023-08-31T13:36:58;4.55;;;1.50;;
75459;SDS011;64039;53.060;9.342;2023-08-31T13:39:23;3.45;;;0.93;;
75459;SDS011;64039;53.060;9.342;2023-08-31T13:41:50;2.08;;;0.80;;
75459;SDS011;64039;53.060;9.342;2023-08-31T13:44:17;2.13;;;0.70;;
75459;SDS011;64039;53.060;9.342;2023-08-31T13:46:43;2.95;;;0.70;;
75459;SDS011;64039;53.060;9.342;2023-08-31T13:49:08;2.00;;;0.70;;
75459;SDS011;64039;53.060;9.342;2023-08-31T13:51:33;1.30;;;0.52;;
75459;SDS011;64039;53.060;9.342;2023-08-31T13:54:01;2.30;;;0.80;;
75459;SDS011;64039;53.060;9.342;2023-08-31T13:56:28;2.35;;;0.60;;
75459;SDS011;64039;53.060;9.342;2023-08-31T13:58:54;2.88;;;0.60;;
75459;SDS011;64039;53.060;9.342;2023-08-31T14:01:19;2.42;;;1.25;;
75459;SDS011;64039;53.060;9.342;2023-08-31T14:03:45;1.58;;;0.60;;
75459;SDS011;64039;53.060;9.342;2023-08-31T14:06:10;2.55;;;0.50;;
75459;SDS011;64039;53.060;9.342;2023-08-31T14:08:36;2.70;;;1.00;;
75459;SDS011;64039;53.060;9.342;2023-08-31T14:11:01;3.88;;;1.13;;
75459;SDS011;64039;53.060;9.342;2023-08-31T14:13:27;1.52;;;0.50;;
75459;SDS011;64039;53.060;9.342;2023-08-31T14:15:52;1.10;;;0.35;;
75459;SDS011;64039;53.060;9.342;2023-08-31T14:18:19;1.83;;;0.40;;
75459;SDS011;64039;53.060;9.342;2023-08-31T14:20:44;2.08;;;0.30;;
75459;SDS011;64039;53.060;9.342;2023-08-31T14:23:10;1.30;;;0.30;;
75459;SDS011;64039;53.060;9.342;2023-08-31T14:25:36;1.33;;;0.40;;
75459;SDS011;64039;53.060;9.342;2023-08-31T14:28:03;1.00;;;0.40;;
75459;SDS011;64039;53.060;9.342;2023-08-31T14:30:29;1.13;;;0.30;;
75459;SDS011;64039;53.060;9.342;2023-08-31T14:32:55;1.55;;;0.32;;
75459;SDS011;64039;53.060;9.342;2023-08-31T14:35:21;0.85;;;0.30;;
75459;SDS011;64039;53.060;9.342;2023-08-31T14:37:46;1.35;;;0.30;;
75459;SDS011;64039;53.060;9.342;2023-08-31T14:40:12;0.70;;;0.40;;
75459;SDS011;64039;53.060;9.342;2023-08-31T14:42:39;1.60;;;0.30;;
75459;SDS011;64039;53.060;9.342;2023-08-31T14:45:05;1.70;;;0.40;;
75459;SDS011;64039;53.060;9.342;2023-08-31T14:47:31;0.73;;;0.35;;
75459;SDS011;64039;53.060;9.342;2023-08-31T14:49:56;2.22;;;0.43;;
75459;SDS011;64039;53.060;9.342;2023-08-31T14:52:22;1.20;;;0.38;;
75459;SDS011;64039;53.060;9.342;2023-08-31T14:54:47;1.60;;;0.40;;
75459;SDS011;64039;53.060;9.342;2023-08-31T14:57:13;2.90;;;0.50;;
75459;SDS011;64039;53.060;9.342;2023-08-31T14:59:39;2.67;;;0.80;;
75459;SDS011;64039;53.060;9.342;2023-08-31T15:02:05;2.00;;;0.50;;
75459;SDS011;64039;53.060;9.342;2023-08-31T15:04:31;1.73;;;0.50;;
75459;SDS011;64039;53.060;9.342;2023-08-31T15:06:57;1.15;;;0.50;;